sensor_id;sensor_type;location;lat;lon;timestamp;temperature;humidity
6118;DHT22;3089;48.202;11.510;2023-07-31T00:02:03;18.20;99.90
6118;DHT22;3089;48.202;11.510;2023-07-31T00:04:33;18.20;99.90
6118;DHT22;3089;48.202;11.510;2023-07-31T00:07:01;18.20;99.90
6118;DHT22;3089;48.202;11.510;2023-07-31T00:09:30;18.20;99.90
6118;DHT22;3089;48.202;11.510;2023-07-31T00:11:58;18.10;99.90
6118;DHT22;3089;48.202;11.510;2023-07-31T00:14:26;18.10;99.90
6118;DHT22;3089;48.202;11.510;2023-07-31T00:16:54;18.10;99.90
6118;DHT22;3089;48.202;11.510;2023-07-31T00:19:22;18.00;99.90
6118;DHT22;3089;48.202;11.510;2023-07-31T00:21:51;18.00;99.90
6118;DHT22;3089;48.202;11.510;2023-07-31T00:24:19;18.00;99.90
6118;DHT22;3089;48.202;11.510;2023-07-31T00:26:47;18.00;99.90
6118;DHT22;3089;48.202;11.510;2023-07-31T00:29:15;18.10;99.90
6118;DHT22;3089;48.202;11.510;2023-07-31T00:31:43;18.10;99.90
6118;DHT22;3089;48.202;11.510;2023-07-31T00:34:11;18.10;99.90
6118;DHT22;3089;48.202;11.510;2023-07-31T00:36:38;18.00;99.90
6118;DHT22;3089;48.202;11.510;2023-07-31T00:39:08;18.00;99.90
6118;DHT22;3089;48.202;11.510;2023-07-31T00:41:36;18.00;99.90
6118;DHT22;3089;48.202;11.510;2023-07-31T00:44:04;18.00;99.90
6118;DHT22;3089;48.202;11.510;2023-07-31T00:46:32;17.90;99.90
6118;DHT22;3089;48.202;11.510;2023-07-31T00:49:00;17.90;99.90
6118;DHT22;3089;48.202;11.510;2023-07-31T00:51:29;17.90;99.90
6118;DHT22;3089;48.202;11.510;2023-07-31T00:53:57;17.90;99.90
6118;DHT22;3089;48.202;11.510;2023-07-31T00:56:27;17.80;99.90
6118;DHT22;3089;48.202;11.510;2023-07-31T00:58:56;17.80;99.90
6118;DHT22;3089;48.202;11.510;2023-07-31T01:01:24;17.80;99.90
6118;DHT22;3089;48.202;11.510;2023-07-31T01:03:53;17.80;99.90
6118;DHT22;3089;48.202;11.510;2023-07-31T01:06:31;17.80;99.90
6118;DHT22;3089;48.202;11.510;2023-07-31T01:09:03;17.80;99.90
6118;DHT22;3089;48.202;11.510;2023-07-31T01:11:38;17.70;99.90
6118;DHT22;3089;48.202;11.510;2023-07-31T01:14:06;17.70;99.90
6118;DHT22;3089;48.202;11.510;2023-07-31T01:16:34;17.70;99.90
6118;DHT22;3089;48.202;11.510;2023-07-31T01:19:02;17.70;99.90
6118;DHT22;3089;48.202;11.510;2023-07-31T01:21:43;17.70;99.90
6118;DHT22;3089;48.202;11.510;2023-07-31T01:24:21;17.70;99.90
6118;DHT22;3089;48.202;11.510;2023-07-31T01:26:56;17.70;99.90
6118;DHT22;3089;48.202;11.510;2023-07-31T01:29:32;17.70;99.90
6118;DHT22;3089;48.202;11.510;2023-07-31T01:32:02;17.60;99.90
6118;DHT22;3089;48.202;11.510;2023-07-31T01:34:31;17.70;99.90
6118;DHT22;3089;48.202;11.510;2023-07-31T01:36:59;17.70;99.90
6118;DHT22;3089;48.202;11.510;2023-07-31T01:39:27;17.60;99.90
6118;DHT22;3089;48.202;11.510;2023-07-31T01:41:57;17.60;99.90
6118;DHT22;3089;48.202;11.510;2023-07-31T01:44:24;17.50;99.90
6118;DHT22;3089;48.202;11.510;2023-07-31T01:46:52;17.50;99.90
6118;DHT22;3089;48.202;11.510;2023-07-31T01:49:20;17.50;99.90
6118;DHT22;3089;48.202;11.510;2023-07-31T01:51:48;17.50;99.90
6118;DHT22;3089;48.202;11.510;2023-07-31T01:54:16;17.50;99.90
6118;DHT22;3089;48.202;11.510;2023-07-31T01:56:44;17.50;99.90
6118;DHT22;3089;48.202;11.510;2023-07-31T01:59:13;17.50;99.90
6118;DHT22;3089;48.202;11.510;2023-07-31T02:01:41;17.50;99.90
6118;DHT22;3089;48.202;11.510;2023-07-31T02:04:09;17.50;99.90
6118;DHT22;3089;48.202;11.510;2023-07-31T02:06:37;17.50;99.90
6118;DHT22;3089;48.202;11.510;2023-07-31T02:09:06;17.40;99.90
6118;DHT22;3089;48.202;11.510;2023-07-31T02:11:34;17.40;99.90
6118;DHT22;3089;48.202;11.510;2023-07-31T02:14:02;17.30;99.90
6118;DHT22;3089;48.202;11.510;2023-07-31T02:16:31;17.30;99.90
6118;DHT22;3089;48.202;11.510;2023-07-31T02:18:59;17.30;99.90
6118;DHT22;3089;48.202;11.510;2023-07-31T02:21:27;17.30;99.90
6118;DHT22;3089;48.202;11.510;2023-07-31T02:23:55;17.30;99.90
6118;DHT22;3089;48.202;11.510;2023-07-31T02:26:22;17.30;99.90
6118;DHT22;3089;48.202;11.510;2023-07-31T02:28:50;17.30;99.90
6118;DHT22;3089;48.202;11.510;2023-07-31T02:31:18;17.30;99.90
6118;DHT22;3089;48.202;11.510;2023-07-31T02:33:50;17.30;99.90
6118;DHT22;3089;48.202;11.510;2023-07-31T02:36:18;17.30;99.90
6118;DHT22;3089;48.202;11.510;2023-07-31T02:38:46;17.30;99.90
6118;DHT22;3089;48.202;11.510;2023-07-31T02:41:13;17.20;99.90
6118;DHT22;3089;48.202;11.510;2023-07-31T02:43:41;17.20;99.90
6118;DHT22;3089;48.202;11.510;2023-07-31T02:46:09;17.20;99.90
6118;DHT22;3089;48.202;11.510;2023-07-31T02:48:37;17.20;99.90
6118;DHT22;3089;48.202;11.510;2023-07-31T02:51:07;17.10;99.90
6118;DHT22;3089;48.202;11.510;2023-07-31T02:53:34;17.10;99.90
6118;DHT22;3089;48.202;11.510;2023-07-31T02:56:02;17.10;99.90
6118;DHT22;3089;48.202;11.510;2023-07-31T02:58:31;17.10;99.90
6118;DHT22;3089;48.202;11.510;2023-07-31T03:00:59;17.10;99.90
6118;DHT22;3089;48.202;11.510;2023-07-31T03:03:27;17.00;99.90
6118;DHT22;3089;48.202;11.510;2023-07-31T03:05:55;17.00;99.90
6118;DHT22;3089;48.202;11.510;2023-07-31T03:08:24;17.00;99.90
6118;DHT22;3089;48.202;11.510;2023-07-31T03:10:52;17.00;99.90
6118;DHT22;3089;48.202;11.510;2023-07-31T03:13:20;17.00;99.90
6118;DHT22;3089;48.202;11.510;2023-07-31T03:15:48;17.00;99.90
6118;DHT22;3089;48.202;11.510;2023-07-31T03:18:15;17.00;99.90
6118;DHT22;3089;48.202;11.510;2023-07-31T03:20:43;16.90;99.90
6118;DHT22;3089;48.202;11.510;2023-07-31T03:23:11;16.90;99.90
6118;DHT22;3089;48.202;11.510;2023-07-31T03:25:54;16.90;99.90
6118;DHT22;3089;48.202;11.510;2023-07-31T03:28:22;16.80;99.90
6118;DHT22;3089;48.202;11.510;2023-07-31T03:30:51;16.90;99.90
6118;DHT22;3089;48.202;11.510;2023-07-31T03:33:19;16.90;99.90
6118;DHT22;3089;48.202;11.510;2023-07-31T03:35:47;16.90;99.90
6118;DHT22;3089;48.202;11.510;2023-07-31T03:38:15;16.90;99.90
6118;DHT22;3089;48.202;11.510;2023-07-31T03:40:44;16.90;99.90
6118;DHT22;3089;48.202;11.510;2023-07-31T03:43:12;16.90;99.90
6118;DHT22;3089;48.202;11.510;2023-07-31T03:45:40;16.90;99.90
6118;DHT22;3089;48.202;11.510;2023-07-31T03:48:08;16.90;99.90
6118;DHT22;3089;48.202;11.510;2023-07-31T03:50:36;16.80;99.90
6118;DHT22;3089;48.202;11.510;2023-07-31T03:53:04;16.80;99.90
6118;DHT22;3089;48.202;11.510;2023-07-31T03:55:32;16.80;99.90
6118;DHT22;3089;48.202;11.510;2023-07-31T03:58:01;16.80;99.90
6118;DHT22;3089;48.202;11.510;2023-07-31T04:00:29;16.80;99.90
6118;DHT22;3089;48.202;11.510;2023-07-31T04:02:57;16.70;99.90
6118;DHT22;3089;48.202;11.510;2023-07-31T04:05:25;16.80;99.90
6118;DHT22;3089;48.202;11.510;2023-07-31T04:07:53;16.80;99.90
6118;DHT22;3089;48.202;11.510;2023-07-31T04:10:21;16.90;99.90
6118;DHT22;3089;48.202;11.510;2023-07-31T04:12:49;16.90;99.90
6118;DHT22;3089;48.202;11.510;2023-07-31T04:15:18;16.90;99.90
6118;DHT22;3089;48.202;11.510;2023-07-31T04:17:46;16.90;99.90
6118;DHT22;3089;48.202;11.510;2023-07-31T04:20:14;16.90;99.90
6118;DHT22;3089;48.202;11.510;2023-07-31T04:22:42;16.90;99.90
6118;DHT22;3089;48.202;11.510;2023-07-31T04:25:10;16.90;99.90
6118;DHT22;3089;48.202;11.510;2023-07-31T04:27:38;16.90;99.90
6118;DHT22;3089;48.202;11.510;2023-07-31T04:30:07;16.90;99.90
6118;DHT22;3089;48.202;11.510;2023-07-31T04:32:36;16.90;99.90
6118;DHT22;3089;48.202;11.510;2023-07-31T04:35:05;16.90;99.90
6118;DHT22;3089;48.202;11.510;2023-07-31T04:37:32;16.90;99.90
6118;DHT22;3089;48.202;11.510;2023-07-31T04:40:00;16.90;99.90
6118;DHT22;3089;48.202;11.510;2023-07-31T04:42:28;16.80;99.90
6118;DHT22;3089;48.202;11.510;2023-07-31T04:44:56;16.90;99.90
6118;DHT22;3089;48.202;11.510;2023-07-31T04:47:24;16.90;99.90
6118;DHT22;3089;48.202;11.510;2023-07-31T04:49:53;16.90;99.90
6118;DHT22;3089;48.202;11.510;2023-07-31T04:52:21;16.90;99.90
6118;DHT22;3089;48.202;11.510;2023-07-31T04:54:49;16.90;99.90
6118;DHT22;3089;48.202;11.510;2023-07-31T04:57:17;17.00;99.90
6118;DHT22;3089;48.202;11.510;2023-07-31T04:59:45;17.10;99.90
6118;DHT22;3089;48.202;11.510;2023-07-31T05:02:15;17.20;99.90
6118;DHT22;3089;48.202;11.510;2023-07-31T05:04:43;17.30;99.90
6118;DHT22;3089;48.202;11.510;2023-07-31T05:07:13;17.10;99.90
6118;DHT22;3089;48.202;11.510;2023-07-31T05:09:40;17.10;99.90
6118;DHT22;3089;48.202;11.510;2023-07-31T05:12:08;17.20;99.90
6118;DHT22;3089;48.202;11.510;2023-07-31T05:14:36;17.30;99.90
6118;DHT22;3089;48.202;11.510;2023-07-31T05:17:04;17.50;99.90
6118;DHT22;3089;48.202;11.510;2023-07-31T05:19:32;17.80;99.90
6118;DHT22;3089;48.202;11.510;2023-07-31T05:22:00;18.60;99.90
6118;DHT22;3089;48.202;11.510;2023-07-31T05:24:29;18.70;99.90
6118;DHT22;3089;48.202;11.510;2023-07-31T05:26:57;19.80;99.90
6118;DHT22;3089;48.202;11.510;2023-07-31T05:29:25;19.90;99.90
6118;DHT22;3089;48.202;11.510;2023-07-31T05:31:53;19.90;99.90
6118;DHT22;3089;48.202;11.510;2023-07-31T05:34:21;20.20;99.90
6118;DHT22;3089;48.202;11.510;2023-07-31T05:36:48;20.20;99.90
6118;DHT22;3089;48.202;11.510;2023-07-31T05:39:16;20.40;99.90
6118;DHT22;3089;48.202;11.510;2023-07-31T05:41:47;20.70;99.90
6118;DHT22;3089;48.202;11.510;2023-07-31T05:44:15;20.50;99.90
6118;DHT22;3089;48.202;11.510;2023-07-31T05:46:43;19.40;99.90
6118;DHT22;3089;48.202;11.510;2023-07-31T05:49:11;18.80;99.90
6118;DHT22;3089;48.202;11.510;2023-07-31T05:51:39;18.40;99.90
6118;DHT22;3089;48.202;11.510;2023-07-31T05:54:06;18.30;99.90
6118;DHT22;3089;48.202;11.510;2023-07-31T05:56:34;18.30;99.90
6118;DHT22;3089;48.202;11.510;2023-07-31T05:59:04;18.30;99.90
6118;DHT22;3089;48.202;11.510;2023-07-31T06:01:32;18.20;99.90
6118;DHT22;3089;48.202;11.510;2023-07-31T06:04:00;18.20;99.90
6118;DHT22;3089;48.202;11.510;2023-07-31T06:06:28;18.10;99.90
6118;DHT22;3089;48.202;11.510;2023-07-31T06:08:56;18.00;99.90
6118;DHT22;3089;48.202;11.510;2023-07-31T06:11:24;18.00;99.90
6118;DHT22;3089;48.202;11.510;2023-07-31T06:13:52;18.00;99.90
6118;DHT22;3089;48.202;11.510;2023-07-31T06:16:22;18.00;99.90
6118;DHT22;3089;48.202;11.510;2023-07-31T06:18:50;18.00;99.90
6118;DHT22;3089;48.202;11.510;2023-07-31T06:21:18;18.00;99.90
6118;DHT22;3089;48.202;11.510;2023-07-31T06:23:46;18.00;99.90
6118;DHT22;3089;48.202;11.510;2023-07-31T06:26:14;18.00;99.90
6118;DHT22;3089;48.202;11.510;2023-07-31T06:28:41;18.00;99.90
6118;DHT22;3089;48.202;11.510;2023-07-31T06:31:10;18.00;99.90
6118;DHT22;3089;48.202;11.510;2023-07-31T06:33:39;18.00;99.90
6118;DHT22;3089;48.202;11.510;2023-07-31T06:36:07;18.00;99.90
6118;DHT22;3089;48.202;11.510;2023-07-31T06:38:35;18.10;99.90
6118;DHT22;3089;48.202;11.510;2023-07-31T06:41:04;18.30;99.90
6118;DHT22;3089;48.202;11.510;2023-07-31T06:43:31;18.40;99.90
6118;DHT22;3089;48.202;11.510;2023-07-31T06:46:04;18.30;99.90
6118;DHT22;3089;48.202;11.510;2023-07-31T06:48:32;18.30;99.90
6118;DHT22;3089;48.202;11.510;2023-07-31T06:51:01;18.40;99.90
6118;DHT22;3089;48.202;11.510;2023-07-31T06:53:29;18.50;99.90
6118;DHT22;3089;48.202;11.510;2023-07-31T06:55:57;18.60;99.90
6118;DHT22;3089;48.202;11.510;2023-07-31T06:58:25;18.60;99.90
6118;DHT22;3089;48.202;11.510;2023-07-31T07:00:53;18.60;99.90
6118;DHT22;3089;48.202;11.510;2023-07-31T07:03:21;18.70;99.90
6118;DHT22;3089;48.202;11.510;2023-07-31T07:05:49;18.60;99.90
6118;DHT22;3089;48.202;11.510;2023-07-31T07:08:18;18.60;99.90
6118;DHT22;3089;48.202;11.510;2023-07-31T07:10:46;18.50;99.90
6118;DHT22;3089;48.202;11.510;2023-07-31T07:13:14;18.50;99.90
6118;DHT22;3089;48.202;11.510;2023-07-31T07:15:42;18.60;99.90
6118;DHT22;3089;48.202;11.510;2023-07-31T07:18:10;18.70;99.90
6118;DHT22;3089;48.202;11.510;2023-07-31T07:20:38;18.80;99.90
6118;DHT22;3089;48.202;11.510;2023-07-31T07:23:06;18.70;99.90
6118;DHT22;3089;48.202;11.510;2023-07-31T07:25:38;19.20;99.90
6118;DHT22;3089;48.202;11.510;2023-07-31T07:28:06;19.30;99.90
6118;DHT22;3089;48.202;11.510;2023-07-31T07:30:34;19.80;99.90
6118;DHT22;3089;48.202;11.510;2023-07-31T07:33:02;19.40;99.90
6118;DHT22;3089;48.202;11.510;2023-07-31T07:35:33;19.00;99.90
6118;DHT22;3089;48.202;11.510;2023-07-31T07:38:01;18.90;99.90
6118;DHT22;3089;48.202;11.510;2023-07-31T07:40:29;19.10;99.90
6118;DHT22;3089;48.202;11.510;2023-07-31T07:42:59;19.30;99.90
6118;DHT22;3089;48.202;11.510;2023-07-31T07:45:27;19.40;99.90
6118;DHT22;3089;48.202;11.510;2023-07-31T07:47:55;19.20;99.90
6118;DHT22;3089;48.202;11.510;2023-07-31T07:50:23;19.50;99.90
6118;DHT22;3089;48.202;11.510;2023-07-31T07:52:50;19.50;99.90
6118;DHT22;3089;48.202;11.510;2023-07-31T07:55:18;19.60;99.90
6118;DHT22;3089;48.202;11.510;2023-07-31T07:57:46;19.70;99.90
6118;DHT22;3089;48.202;11.510;2023-07-31T08:00:18;19.60;99.90
6118;DHT22;3089;48.202;11.510;2023-07-31T08:02:46;19.50;99.90
6118;DHT22;3089;48.202;11.510;2023-07-31T08:05:14;19.40;99.90
6118;DHT22;3089;48.202;11.510;2023-07-31T08:07:44;19.80;99.90
6118;DHT22;3089;48.202;11.510;2023-07-31T08:10:11;19.80;99.90
6118;DHT22;3089;48.202;11.510;2023-07-31T08:12:39;19.50;99.90
6118;DHT22;3089;48.202;11.510;2023-07-31T08:15:08;19.90;99.90
6118;DHT22;3089;48.202;11.510;2023-07-31T08:17:37;19.80;99.90
6118;DHT22;3089;48.202;11.510;2023-07-31T08:20:07;19.70;99.90
6118;DHT22;3089;48.202;11.510;2023-07-31T08:22:35;19.70;99.90
6118;DHT22;3089;48.202;11.510;2023-07-31T08:25:03;19.80;99.90
6118;DHT22;3089;48.202;11.510;2023-07-31T08:27:31;20.10;99.90
6118;DHT22;3089;48.202;11.510;2023-07-31T08:29:59;20.00;99.90
6118;DHT22;3089;48.202;11.510;2023-07-31T08:32:27;19.80;99.90
6118;DHT22;3089;48.202;11.510;2023-07-31T08:34:56;19.80;99.90
6118;DHT22;3089;48.202;11.510;2023-07-31T08:37:24;19.80;99.90
6118;DHT22;3089;48.202;11.510;2023-07-31T08:39:52;19.80;99.90
6118;DHT22;3089;48.202;11.510;2023-07-31T08:42:21;19.60;99.90
6118;DHT22;3089;48.202;11.510;2023-07-31T08:44:49;19.40;99.90
6118;DHT22;3089;48.202;11.510;2023-07-31T08:47:19;19.50;99.90
6118;DHT22;3089;48.202;11.510;2023-07-31T08:49:47;19.40;99.90
6118;DHT22;3089;48.202;11.510;2023-07-31T08:52:17;19.40;99.90
6118;DHT22;3089;48.202;11.510;2023-07-31T08:54:45;19.30;99.90
6118;DHT22;3089;48.202;11.510;2023-07-31T08:57:14;19.30;99.90
6118;DHT22;3089;48.202;11.510;2023-07-31T08:59:43;19.40;99.90
6118;DHT22;3089;48.202;11.510;2023-07-31T09:02:12;19.50;99.90
6118;DHT22;3089;48.202;11.510;2023-07-31T09:04:40;19.50;99.90
6118;DHT22;3089;48.202;11.510;2023-07-31T09:07:08;19.70;99.90
6118;DHT22;3089;48.202;11.510;2023-07-31T09:09:41;19.90;99.90
6118;DHT22;3089;48.202;11.510;2023-07-31T09:12:09;20.20;99.90
6118;DHT22;3089;48.202;11.510;2023-07-31T09:14:37;20.50;99.90
6118;DHT22;3089;48.202;11.510;2023-07-31T09:17:06;20.50;99.90
6118;DHT22;3089;48.202;11.510;2023-07-31T09:19:34;20.30;99.90
6118;DHT22;3089;48.202;11.510;2023-07-31T09:22:04;20.60;99.90
6118;DHT22;3089;48.202;11.510;2023-07-31T09:24:34;20.50;99.90
6118;DHT22;3089;48.202;11.510;2023-07-31T09:27:03;20.60;99.90
6118;DHT22;3089;48.202;11.510;2023-07-31T09:29:31;20.40;99.90
6118;DHT22;3089;48.202;11.510;2023-07-31T09:31:59;20.30;99.90
6118;DHT22;3089;48.202;11.510;2023-07-31T09:34:37;20.50;99.90
6118;DHT22;3089;48.202;11.510;2023-07-31T09:37:05;20.70;99.90
6118;DHT22;3089;48.202;11.510;2023-07-31T09:39:45;20.90;99.90
6118;DHT22;3089;48.202;11.510;2023-07-31T09:42:24;20.90;99.90
6118;DHT22;3089;48.202;11.510;2023-07-31T09:44:52;21.20;99.90
6118;DHT22;3089;48.202;11.510;2023-07-31T09:47:23;21.70;99.90
6118;DHT22;3089;48.202;11.510;2023-07-31T09:49:52;22.80;99.90
6118;DHT22;3089;48.202;11.510;2023-07-31T09:52:20;23.10;99.90
6118;DHT22;3089;48.202;11.510;2023-07-31T09:54:48;23.30;99.90
6118;DHT22;3089;48.202;11.510;2023-07-31T09:57:18;23.60;99.90
6118;DHT22;3089;48.202;11.510;2023-07-31T09:59:50;23.60;99.90
6118;DHT22;3089;48.202;11.510;2023-07-31T10:02:21;23.50;99.90
6118;DHT22;3089;48.202;11.510;2023-07-31T10:04:50;23.40;99.90
6118;DHT22;3089;48.202;11.510;2023-07-31T10:07:20;23.30;99.90
6118;DHT22;3089;48.202;11.510;2023-07-31T10:09:51;23.30;99.90
6118;DHT22;3089;48.202;11.510;2023-07-31T10:12:22;22.90;99.90
6118;DHT22;3089;48.202;11.510;2023-07-31T10:14:53;22.80;99.90
6118;DHT22;3089;48.202;11.510;2023-07-31T10:17:21;22.90;99.90
6118;DHT22;3089;48.202;11.510;2023-07-31T10:19:49;22.60;99.90
6118;DHT22;3089;48.202;11.510;2023-07-31T10:22:19;23.00;99.90
6118;DHT22;3089;48.202;11.510;2023-07-31T10:24:48;23.30;99.90
6118;DHT22;3089;48.202;11.510;2023-07-31T10:27:17;23.40;99.90
6118;DHT22;3089;48.202;11.510;2023-07-31T10:29:47;23.10;99.90
6118;DHT22;3089;48.202;11.510;2023-07-31T10:32:17;23.10;99.90
6118;DHT22;3089;48.202;11.510;2023-07-31T10:34:46;23.00;99.90
6118;DHT22;3089;48.202;11.510;2023-07-31T10:37:20;22.70;99.90
6118;DHT22;3089;48.202;11.510;2023-07-31T10:39:56;22.50;99.90
6118;DHT22;3089;48.202;11.510;2023-07-31T10:42:34;22.40;99.90
6118;DHT22;3089;48.202;11.510;2023-07-31T10:45:06;22.40;99.90
6118;DHT22;3089;48.202;11.510;2023-07-31T10:47:38;22.40;99.90
6118;DHT22;3089;48.202;11.510;2023-07-31T10:50:12;22.40;99.90
6118;DHT22;3089;48.202;11.510;2023-07-31T10:52:40;22.30;99.90
6118;DHT22;3089;48.202;11.510;2023-07-31T10:55:31;22.20;99.90
6118;DHT22;3089;48.202;11.510;2023-07-31T10:58:06;22.30;99.90
6118;DHT22;3089;48.202;11.510;2023-07-31T11:00:37;22.50;99.90
6118;DHT22;3089;48.202;11.510;2023-07-31T11:03:07;22.90;99.90
6118;DHT22;3089;48.202;11.510;2023-07-31T11:05:47;23.10;99.90
6118;DHT22;3089;48.202;11.510;2023-07-31T11:08:17;23.20;99.90
6118;DHT22;3089;48.202;11.510;2023-07-31T11:10:46;23.20;99.90
6118;DHT22;3089;48.202;11.510;2023-07-31T11:13:15;23.10;99.90
6118;DHT22;3089;48.202;11.510;2023-07-31T11:15:44;23.20;99.90
6118;DHT22;3089;48.202;11.510;2023-07-31T11:18:12;23.10;99.90
6118;DHT22;3089;48.202;11.510;2023-07-31T11:20:40;23.10;99.90
6118;DHT22;3089;48.202;11.510;2023-07-31T11:23:09;23.10;99.90
6118;DHT22;3089;48.202;11.510;2023-07-31T11:25:38;23.20;99.90
6118;DHT22;3089;48.202;11.510;2023-07-31T11:28:09;23.40;99.90
6118;DHT22;3089;48.202;11.510;2023-07-31T11:30:38;23.40;99.90
6118;DHT22;3089;48.202;11.510;2023-07-31T11:33:09;23.30;99.90
6118;DHT22;3089;48.202;11.510;2023-07-31T11:35:43;23.40;99.90
6118;DHT22;3089;48.202;11.510;2023-07-31T11:38:12;23.70;99.90
6118;DHT22;3089;48.202;11.510;2023-07-31T11:40:44;24.00;99.90
6118;DHT22;3089;48.202;11.510;2023-07-31T11:43:12;24.10;99.90
6118;DHT22;3089;48.202;11.510;2023-07-31T11:45:46;24.20;99.90
6118;DHT22;3089;48.202;11.510;2023-07-31T11:48:23;23.80;99.90
6118;DHT22;3089;48.202;11.510;2023-07-31T11:50:54;23.80;99.90
6118;DHT22;3089;48.202;11.510;2023-07-31T11:53:26;23.90;99.90
6118;DHT22;3089;48.202;11.510;2023-07-31T11:55:57;24.00;99.90
6118;DHT22;3089;48.202;11.510;2023-07-31T11:58:27;24.10;99.90
6118;DHT22;3089;48.202;11.510;2023-07-31T12:00:56;24.10;99.90
6118;DHT22;3089;48.202;11.510;2023-07-31T12:03:26;24.20;99.90
6118;DHT22;3089;48.202;11.510;2023-07-31T12:05:54;24.30;99.90
6118;DHT22;3089;48.202;11.510;2023-07-31T12:08:23;24.20;99.90
6118;DHT22;3089;48.202;11.510;2023-07-31T12:10:52;24.00;99.90
6118;DHT22;3089;48.202;11.510;2023-07-31T12:13:21;24.00;99.90
6118;DHT22;3089;48.202;11.510;2023-07-31T12:15:54;24.00;99.90
6118;DHT22;3089;48.202;11.510;2023-07-31T12:18:26;23.60;99.90
6118;DHT22;3089;48.202;11.510;2023-07-31T12:20:56;23.80;99.90
6118;DHT22;3089;48.202;11.510;2023-07-31T12:23:26;23.70;99.90
6118;DHT22;3089;48.202;11.510;2023-07-31T12:26:01;23.80;99.90
6118;DHT22;3089;48.202;11.510;2023-07-31T12:28:29;23.80;99.90
6118;DHT22;3089;48.202;11.510;2023-07-31T12:30:58;24.20;99.90
6118;DHT22;3089;48.202;11.510;2023-07-31T12:33:32;24.30;99.90
6118;DHT22;3089;48.202;11.510;2023-07-31T12:36:01;24.40;99.90
6118;DHT22;3089;48.202;11.510;2023-07-31T12:38:30;24.50;99.90
6118;DHT22;3089;48.202;11.510;2023-07-31T12:40:58;24.40;99.90
6118;DHT22;3089;48.202;11.510;2023-07-31T12:43:26;24.40;99.90
6118;DHT22;3089;48.202;11.510;2023-07-31T12:45:55;24.60;99.90
6118;DHT22;3089;48.202;11.510;2023-07-31T12:48:23;24.60;99.90
6118;DHT22;3089;48.202;11.510;2023-07-31T12:50:52;24.50;99.90
6118;DHT22;3089;48.202;11.510;2023-07-31T12:53:20;24.20;99.90
6118;DHT22;3089;48.202;11.510;2023-07-31T12:55:48;24.20;99.90
6118;DHT22;3089;48.202;11.510;2023-07-31T12:58:16;24.10;99.90
6118;DHT22;3089;48.202;11.510;2023-07-31T13:00:44;24.00;99.90
6118;DHT22;3089;48.202;11.510;2023-07-31T13:03:12;23.90;99.90
6118;DHT22;3089;48.202;11.510;2023-07-31T13:05:40;23.90;99.90
6118;DHT22;3089;48.202;11.510;2023-07-31T13:08:10;24.20;99.90
6118;DHT22;3089;48.202;11.510;2023-07-31T13:10:38;24.30;99.90
6118;DHT22;3089;48.202;11.510;2023-07-31T13:13:06;24.60;99.90
6118;DHT22;3089;48.202;11.510;2023-07-31T13:15:34;24.50;99.90
6118;DHT22;3089;48.202;11.510;2023-07-31T13:18:02;24.60;99.90
6118;DHT22;3089;48.202;11.510;2023-07-31T13:20:30;24.30;99.90
6118;DHT22;3089;48.202;11.510;2023-07-31T13:22:58;24.20;99.90
6118;DHT22;3089;48.202;11.510;2023-07-31T13:25:27;24.00;99.90
6118;DHT22;3089;48.202;11.510;2023-07-31T13:27:55;24.00;99.90
6118;DHT22;3089;48.202;11.510;2023-07-31T13:30:26;24.10;99.90
6118;DHT22;3089;48.202;11.510;2023-07-31T13:32:54;24.40;99.90
6118;DHT22;3089;48.202;11.510;2023-07-31T13:35:22;24.40;99.90
6118;DHT22;3089;48.202;11.510;2023-07-31T13:37:49;24.80;99.90
6118;DHT22;3089;48.202;11.510;2023-07-31T13:40:17;24.90;99.90
6118;DHT22;3089;48.202;11.510;2023-07-31T13:42:47;25.00;99.90
6118;DHT22;3089;48.202;11.510;2023-07-31T13:45:15;24.80;99.90
6118;DHT22;3089;48.202;11.510;2023-07-31T13:47:43;24.70;99.90
6118;DHT22;3089;48.202;11.510;2023-07-31T13:50:11;24.80;99.90
6118;DHT22;3089;48.202;11.510;2023-07-31T13:52:38;24.90;99.90
6118;DHT22;3089;48.202;11.510;2023-07-31T13:55:07;25.00;99.90
6118;DHT22;3089;48.202;11.510;2023-07-31T13:57:35;24.60;99.90
6118;DHT22;3089;48.202;11.510;2023-07-31T14:00:06;24.30;99.90
6118;DHT22;3089;48.202;11.510;2023-07-31T14:02:35;24.20;99.90
6118;DHT22;3089;48.202;11.510;2023-07-31T14:05:03;24.50;99.90
6118;DHT22;3089;48.202;11.510;2023-07-31T14:07:32;24.40;99.90
6118;DHT22;3089;48.202;11.510;2023-07-31T14:10:00;24.30;99.90
6118;DHT22;3089;48.202;11.510;2023-07-31T14:12:27;24.30;99.90
6118;DHT22;3089;48.202;11.510;2023-07-31T14:15:10;24.10;99.90
6118;DHT22;3089;48.202;11.510;2023-07-31T14:17:38;24.20;99.90
6118;DHT22;3089;48.202;11.510;2023-07-31T14:20:08;24.10;99.90
6118;DHT22;3089;48.202;11.510;2023-07-31T14:22:37;24.20;99.90
6118;DHT22;3089;48.202;11.510;2023-07-31T14:25:06;24.10;99.90
6118;DHT22;3089;48.202;11.510;2023-07-31T14:27:33;23.70;99.90
6118;DHT22;3089;48.202;11.510;2023-07-31T14:30:01;24.00;99.90
6118;DHT22;3089;48.202;11.510;2023-07-31T14:32:31;24.00;99.90
6118;DHT22;3089;48.202;11.510;2023-07-31T14:34:59;24.20;99.90
6118;DHT22;3089;48.202;11.510;2023-07-31T14:37:36;24.30;99.90
6118;DHT22;3089;48.202;11.510;2023-07-31T14:40:05;24.20;99.90
6118;DHT22;3089;48.202;11.510;2023-07-31T14:42:34;24.30;99.90
6118;DHT22;3089;48.202;11.510;2023-07-31T14:45:02;24.30;99.90
6118;DHT22;3089;48.202;11.510;2023-07-31T14:47:31;24.40;99.90
6118;DHT22;3089;48.202;11.510;2023-07-31T14:50:00;24.50;99.90
6118;DHT22;3089;48.202;11.510;2023-07-31T14:52:28;24.30;99.90
6118;DHT22;3089;48.202;11.510;2023-07-31T14:54:56;24.20;99.90
6118;DHT22;3089;48.202;11.510;2023-07-31T14:57:24;24.20;99.90
6118;DHT22;3089;48.202;11.510;2023-07-31T14:59:53;24.10;99.90
6118;DHT22;3089;48.202;11.510;2023-07-31T15:02:21;24.20;99.90
6118;DHT22;3089;48.202;11.510;2023-07-31T15:04:50;24.00;99.90
6118;DHT22;3089;48.202;11.510;2023-07-31T15:07:18;24.20;99.90
6118;DHT22;3089;48.202;11.510;2023-07-31T15:09:46;24.10;99.90
6118;DHT22;3089;48.202;11.510;2023-07-31T15:12:14;24.00;99.90
6118;DHT22;3089;48.202;11.510;2023-07-31T15:14:42;24.00;99.90
6118;DHT22;3089;48.202;11.510;2023-07-31T15:17:10;24.00;99.90
6118;DHT22;3089;48.202;11.510;2023-07-31T15:19:38;24.10;99.90
6118;DHT22;3089;48.202;11.510;2023-07-31T15:22:08;24.00;99.90
6118;DHT22;3089;48.202;11.510;2023-07-31T15:24:35;23.90;99.90
6118;DHT22;3089;48.202;11.510;2023-07-31T15:27:04;23.80;99.90
6118;DHT22;3089;48.202;11.510;2023-07-31T15:29:32;23.70;99.90
6118;DHT22;3089;48.202;11.510;2023-07-31T15:32:04;23.60;99.90
6118;DHT22;3089;48.202;11.510;2023-07-31T15:34:32;23.50;99.90
6118;DHT22;3089;48.202;11.510;2023-07-31T15:37:00;23.50;99.90
6118;DHT22;3089;48.202;11.510;2023-07-31T15:39:29;23.30;99.90
6118;DHT22;3089;48.202;11.510;2023-07-31T15:41:57;23.40;99.90
6118;DHT22;3089;48.202;11.510;2023-07-31T15:44:25;23.00;99.90
6118;DHT22;3089;48.202;11.510;2023-07-31T15:46:53;23.00;99.90
6118;DHT22;3089;48.202;11.510;2023-07-31T15:49:20;23.00;99.90
6118;DHT22;3089;48.202;11.510;2023-07-31T15:51:48;23.10;99.90
6118;DHT22;3089;48.202;11.510;2023-07-31T15:54:16;23.00;99.90
6118;DHT22;3089;48.202;11.510;2023-07-31T15:56:46;22.90;99.90